sensor_id;sensor_type;location;lat;lon;timestamp;pressure;altitude;pressure_sealevel;temperature;humidity
35878;BME280;21982;49.804;24.072;2023-07-13T00:02:05;96924.19;;;20.99;67.45
35878;BME280;21982;49.804;24.072;2023-07-13T00:04:30;96975.78;;;21.33;67.25
35878;BME280;21982;49.804;24.072;2023-07-13T00:06:56;96957.63;;;21.18;67.30
35878;BME280;21982;49.804;24.072;2023-07-13T00:09:21;96969.00;;;21.25;67.34
35878;BME280;21982;49.804;24.072;2023-07-13T00:11:51;96968.47;;;21.28;66.92
35878;BME280;21982;49.804;24.072;2023-07-13T00:14:17;96946.88;;;21.13;66.95
35878;BME280;21982;49.804;24.072;2023-07-13T00:16:42;96910.69;;;20.89;66.84
35878;BME280;21982;49.804;24.072;2023-07-13T00:19:12;96982.75;;;21.29;66.97
35878;BME280;21982;49.804;24.072;2023-07-13T00:21:39;96990.59;;;21.35;67.30
35878;BME280;21982;49.804;24.072;2023-07-13T00:24:06;96988.97;;;21.34;67.04
35878;BME280;21982;49.804;24.072;2023-07-13T00:26:32;96907.44;;;20.87;66.79
35878;BME280;21982;49.804;24.072;2023-07-13T00:28:58;96874.28;;;20.71;66.91
35878;BME280;21982;49.804;24.072;2023-07-13T00:31:24;96953.09;;;21.24;67.09
35878;BME280;21982;49.804;24.072;2023-07-13T00:33:49;96949.59;;;21.23;67.21
35878;BME280;21982;49.804;24.072;2023-07-13T00:36:15;96939.84;;;21.07;67.23
35878;BME280;21982;49.804;24.072;2023-07-13T00:38:40;96959.25;;;21.19;67.27
35878;BME280;21982;49.804;24.072;2023-07-13T00:41:06;96960.31;;;21.18;67.42
35878;BME280;21982;49.804;24.072;2023-07-13T00:43:31;96954.91;;;21.08;67.55
35878;BME280;21982;49.804;24.072;2023-07-13T00:46:17;96953.84;;;21.09;67.12
35878;BME280;21982;49.804;24.072;2023-07-13T00:48:45;96938.16;;;20.91;67.48
35878;BME280;21982;49.804;24.072;2023-07-13T00:51:12;96965.66;;;21.03;67.75
35878;BME280;21982;49.804;24.072;2023-07-13T00:53:39;96940.28;;;20.89;67.87
35878;BME280;21982;49.804;24.072;2023-07-13T00:56:05;96956.47;;;20.94;68.01
35878;BME280;21982;49.804;24.072;2023-07-13T00:58:32;96945.63;;;20.84;67.95
35878;BME280;21982;49.804;24.072;2023-07-13T01:00:58;96949.47;;;20.93;68.13
35878;BME280;21982;49.804;24.072;2023-07-13T01:03:23;96915.69;;;20.65;68.21
35878;BME280;21982;49.804;24.072;2023-07-13T01:05:49;96970.16;;;20.87;68.49
35878;BME280;21982;49.804;24.072;2023-07-13T01:08:15;96949.91;;;20.80;68.55
35878;BME280;21982;49.804;24.072;2023-07-13T01:10:41;96960.97;;;20.83;68.68
35878;BME280;21982;49.804;24.072;2023-07-13T01:13:10;96940.22;;;20.73;68.61
35878;BME280;21982;49.804;24.072;2023-07-13T01:15:40;96946.97;;;20.81;68.65
35878;BME280;21982;49.804;24.072;2023-07-13T01:18:08;96956.66;;;20.77;68.77
35878;BME280;21982;49.804;24.072;2023-07-13T01:20:39;96965.00;;;20.76;68.81
35878;BME280;21982;49.804;24.072;2023-07-13T01:23:10;96957.22;;;20.79;68.69
35878;BME280;21982;49.804;24.072;2023-07-13T01:25:37;96941.81;;;20.69;68.72
35878;BME280;21982;49.804;24.072;2023-07-13T01:28:04;96861.56;;;20.14;68.81
35878;BME280;21982;49.804;24.072;2023-07-13T01:30:29;96933.09;;;20.52;68.90
35878;BME280;21982;49.804;24.072;2023-07-13T01:32:56;96929.31;;;20.48;69.14
35878;BME280;21982;49.804;24.072;2023-07-13T01:35:21;96958.19;;;20.63;69.17
35878;BME280;21982;49.804;24.072;2023-07-13T01:37:47;96941.16;;;20.52;69.43
35878;BME280;21982;49.804;24.072;2023-07-13T01:40:13;96920.38;;;20.37;69.38
35878;BME280;21982;49.804;24.072;2023-07-13T01:42:39;96925.53;;;20.44;69.23
35878;BME280;21982;49.804;24.072;2023-07-13T01:45:05;96884.75;;;20.20;69.24
35878;BME280;21982;49.804;24.072;2023-07-13T01:47:31;96919.00;;;20.35;69.46
35878;BME280;21982;49.804;24.072;2023-07-13T01:49:57;96902.78;;;20.25;69.48
35878;BME280;21982;49.804;24.072;2023-07-13T01:52:23;96923.63;;;20.39;69.43
35878;BME280;21982;49.804;24.072;2023-07-13T01:54:48;96951.44;;;20.60;69.38
35878;BME280;21982;49.804;24.072;2023-07-13T01:57:14;96947.69;;;20.61;69.47
35878;BME280;21982;49.804;24.072;2023-07-13T01:59:39;96943.94;;;20.62;69.48
35878;BME280;21982;49.804;24.072;2023-07-13T02:02:05;96915.84;;;20.48;69.34
35878;BME280;21982;49.804;24.072;2023-07-13T02:04:30;96864.78;;;20.11;69.38
35878;BME280;21982;49.804;24.072;2023-07-13T02:06:56;96958.47;;;20.66;69.32
35878;BME280;21982;49.804;24.072;2023-07-13T02:09:21;96958.19;;;20.63;69.60
35878;BME280;21982;49.804;24.072;2023-07-13T02:11:47;96958.44;;;20.61;69.60
35878;BME280;21982;49.804;24.072;2023-07-13T02:14:13;96960.88;;;20.63;69.62
35878;BME280;21982;49.804;24.072;2023-07-13T02:16:40;96951.19;;;20.62;69.67
35878;BME280;21982;49.804;24.072;2023-07-13T02:19:05;96937.41;;;20.53;69.73
35878;BME280;21982;49.804;24.072;2023-07-13T02:21:31;96953.06;;;20.61;69.70
35878;BME280;21982;49.804;24.072;2023-07-13T02:23:56;96913.56;;;20.30;69.48
35878;BME280;21982;49.804;24.072;2023-07-13T02:26:22;96923.63;;;20.39;69.78
35878;BME280;21982;49.804;24.072;2023-07-13T02:28:48;96933.56;;;20.39;69.86
35878;BME280;21982;49.804;24.072;2023-07-13T02:31:16;96955.72;;;20.56;69.82
35878;BME280;21982;49.804;24.072;2023-07-13T02:33:42;96938.34;;;20.32;69.80
35878;BME280;21982;49.804;24.072;2023-07-13T02:36:09;96974.22;;;20.48;69.97
35878;BME280;21982;49.804;24.072;2023-07-13T02:38:36;96982.88;;;20.55;70.00
35878;BME280;21982;49.804;24.072;2023-07-13T02:41:03;96984.00;;;20.59;70.06
35878;BME280;21982;49.804;24.072;2023-07-13T02:43:28;96975.41;;;20.62;70.18
35878;BME280;21982;49.804;24.072;2023-07-13T02:45:55;96980.00;;;20.66;69.92
35878;BME280;21982;49.804;24.072;2023-07-13T02:48:20;96978.97;;;20.72;69.81
35878;BME280;21982;49.804;24.072;2023-07-13T02:50:46;96973.03;;;20.70;69.65
35878;BME280;21982;49.804;24.072;2023-07-13T02:53:11;96984.13;;;20.79;69.65
35878;BME280;21982;49.804;24.072;2023-07-13T02:55:37;96992.97;;;20.80;69.60
35878;BME280;21982;49.804;24.072;2023-07-13T02:58:02;96964.34;;;20.58;69.70
35878;BME280;21982;49.804;24.072;2023-07-13T03:00:28;97002.13;;;20.73;69.78
35878;BME280;21982;49.804;24.072;2023-07-13T03:02:53;96999.94;;;20.70;69.80
35878;BME280;21982;49.804;24.072;2023-07-13T03:05:22;97025.00;;;20.76;69.73
35878;BME280;21982;49.804;24.072;2023-07-13T03:07:47;97023.13;;;20.77;69.89
35878;BME280;21982;49.804;24.072;2023-07-13T03:10:13;97019.06;;;20.74;69.48
35878;BME280;21982;49.804;24.072;2023-07-13T03:12:38;97028.56;;;20.87;69.51
35878;BME280;21982;49.804;24.072;2023-07-13T03:15:04;97021.25;;;20.82;69.43
35878;BME280;21982;49.804;24.072;2023-07-13T03:17:30;97020.78;;;20.90;69.34
35878;BME280;21982;49.804;24.072;2023-07-13T03:19:56;97017.31;;;20.95;69.29
35878;BME280;21982;49.804;24.072;2023-07-13T03:22:22;97007.06;;;20.92;69.05
35878;BME280;21982;49.804;24.072;2023-07-13T03:24:47;97002.25;;;20.99;68.97
35878;BME280;21982;49.804;24.072;2023-07-13T03:27:14;96973.66;;;20.88;68.91
35878;BME280;21982;49.804;24.072;2023-07-13T03:29:39;97010.69;;;21.13;68.74
35878;BME280;21982;49.804;24.072;2023-07-13T03:32:05;96991.53;;;21.09;68.75
35878;BME280;21982;49.804;24.072;2023-07-13T03:34:31;96882.78;;;20.48;68.44
35878;BME280;21982;49.804;24.072;2023-07-13T03:36:57;96959.19;;;20.99;68.60
35878;BME280;21982;49.804;24.072;2023-07-13T03:39:23;96977.56;;;21.17;68.53
35878;BME280;21982;49.804;24.072;2023-07-13T03:41:48;96991.34;;;21.26;68.40
35878;BME280;21982;49.804;24.072;2023-07-13T03:44:16;96950.91;;;21.11;68.25
35878;BME280;21982;49.804;24.072;2023-07-13T03:46:42;96973.63;;;21.35;68.17
35878;BME280;21982;49.804;24.072;2023-07-13T03:49:08;96966.34;;;21.30;68.04
35878;BME280;21982;49.804;24.072;2023-07-13T03:51:33;96968.47;;;21.28;67.96
35878;BME280;21982;49.804;24.072;2023-07-13T03:53:59;96953.38;;;21.22;67.92
35878;BME280;21982;49.804;24.072;2023-07-13T03:56:24;96998.97;;;21.49;67.76
35878;BME280;21982;49.804;24.072;2023-07-13T03:58:50;96977.16;;;21.46;67.77
35878;BME280;21982;49.804;24.072;2023-07-13T04:01:18;96956.13;;;21.37;67.57
35878;BME280;21982;49.804;24.072;2023-07-13T04:03:44;96973.13;;;21.48;67.63
35878;BME280;21982;49.804;24.072;2023-07-13T04:06:37;96983.09;;;21.58;67.23
35878;BME280;21982;49.804;24.072;2023-07-13T04:09:04;96988.22;;;21.54;67.54
35878;BME280;21982;49.804;24.072;2023-07-13T04:11:32;96995.50;;;21.59;67.32
35878;BME280;21982;49.804;24.072;2023-07-13T04:13:58;96972.84;;;21.50;67.12
35878;BME280;21982;49.804;24.072;2023-07-13T04:16:24;96977.72;;;21.58;67.16
35878;BME280;21982;49.804;24.072;2023-07-13T04:18:50;96992.31;;;21.72;66.98
35878;BME280;21982;49.804;24.072;2023-07-13T04:21:20;97004.72;;;21.88;66.91
35878;BME280;21982;49.804;24.072;2023-07-13T04:23:45;97005.00;;;21.97;66.60
35878;BME280;21982;49.804;24.072;2023-07-13T04:26:11;97002.63;;;22.05;66.49
35878;BME280;21982;49.804;24.072;2023-07-13T04:28:36;97009.94;;;22.15;66.15
35878;BME280;21982;49.804;24.072;2023-07-13T04:31:01;96995.06;;;22.23;66.10
35878;BME280;21982;49.804;24.072;2023-07-13T04:33:27;96998.31;;;22.40;65.96
35878;BME280;21982;49.804;24.072;2023-07-13T04:35:54;97005.84;;;22.53;65.33
35878;BME280;21982;49.804;24.072;2023-07-13T04:38:22;97000.44;;;22.63;64.88
35878;BME280;21982;49.804;24.072;2023-07-13T04:40:47;97003.69;;;22.65;65.25
35878;BME280;21982;49.804;24.072;2023-07-13T04:43:13;96984.53;;;22.57;64.72
35878;BME280;21982;49.804;24.072;2023-07-13T04:45:38;96995.59;;;22.65;64.86
35878;BME280;21982;49.804;24.072;2023-07-13T04:48:04;97000.97;;;22.70;64.67
35878;BME280;21982;49.804;24.072;2023-07-13T04:50:29;97016.88;;;22.92;64.24
35878;BME280;21982;49.804;24.072;2023-07-13T04:52:55;97015.00;;;22.93;63.96
35878;BME280;21982;49.804;24.072;2023-07-13T04:55:20;97026.28;;;23.20;63.74
35878;BME280;21982;49.804;24.072;2023-07-13T04:57:47;97026.72;;;23.43;63.47
35878;BME280;21982;49.804;24.072;2023-07-13T05:00:13;97010.44;;;23.58;63.15
35878;BME280;21982;49.804;24.072;2023-07-13T05:02:39;97027.34;;;23.89;62.06
35878;BME280;21982;49.804;24.072;2023-07-13T05:05:05;97026.91;;;24.11;61.72
35878;BME280;21982;49.804;24.072;2023-07-13T05:07:31;97008.47;;;24.18;61.36
35878;BME280;21982;49.804;24.072;2023-07-13T05:09:58;96978.19;;;24.16;60.68
35878;BME280;21982;49.804;24.072;2023-07-13T05:12:24;97002.31;;;24.46;60.67
35878;BME280;21982;49.804;24.072;2023-07-13T05:14:50;97038.31;;;24.76;60.26
35878;BME280;21982;49.804;24.072;2023-07-13T05:17:15;97046.03;;;24.92;60.11
35878;BME280;21982;49.804;24.072;2023-07-13T05:19:41;96996.50;;;24.87;59.42
35878;BME280;21982;49.804;24.072;2023-07-13T05:22:06;97019.69;;;25.27;59.04
35878;BME280;21982;49.804;24.072;2023-07-13T05:24:32;97048.13;;;25.72;58.35
35878;BME280;21982;49.804;24.072;2023-07-13T05:26:58;97013.25;;;25.84;57.57
35878;BME280;21982;49.804;24.072;2023-07-13T05:29:23;97039.50;;;26.45;56.66
35878;BME280;21982;49.804;24.072;2023-07-13T05:31:49;96997.41;;;26.61;55.17
35878;BME280;21982;49.804;24.072;2023-07-13T05:34:14;97052.81;;;27.66;53.95
35878;BME280;21982;49.804;24.072;2023-07-13T05:36:40;97058.84;;;28.27;52.96
35878;BME280;21982;49.804;24.072;2023-07-13T05:39:06;97060.47;;;28.95;51.47
35878;BME280;21982;49.804;24.072;2023-07-13T05:41:31;97035.06;;;29.48;49.81
35878;BME280;21982;49.804;24.072;2023-07-13T05:43:57;97041.97;;;30.11;48.78
35878;BME280;21982;49.804;24.072;2023-07-13T05:46:22;97067.38;;;30.72;47.66
35878;BME280;21982;49.804;24.072;2023-07-13T05:48:47;97032.06;;;30.96;46.44
35878;BME280;21982;49.804;24.072;2023-07-13T05:51:13;97051.47;;;31.67;45.44
35878;BME280;21982;49.804;24.072;2023-07-13T05:53:38;97030.47;;;32.01;44.53
35878;BME280;21982;49.804;24.072;2023-07-13T05:56:04;97056.41;;;32.65;43.98
35878;BME280;21982;49.804;24.072;2023-07-13T05:58:30;97061.56;;;32.88;42.57
35878;BME280;21982;49.804;24.072;2023-07-13T06:01:08;97060.88;;;33.03;42.40
35878;BME280;21982;49.804;24.072;2023-07-13T06:03:34;97001.44;;;32.83;41.66
35878;BME280;21982;49.804;24.072;2023-07-13T06:06:00;97050.91;;;33.44;41.41
35878;BME280;21982;49.804;24.072;2023-07-13T06:08:27;97046.47;;;33.51;40.72
35878;BME280;21982;49.804;24.072;2023-07-13T06:10:53;97053.69;;;33.80;40.47
35878;BME280;21982;49.804;24.072;2023-07-13T06:13:19;97062.38;;;33.94;40.12
35878;BME280;21982;49.804;24.072;2023-07-13T06:15:51;97062.81;;;34.09;40.26
35878;BME280;21982;49.804;24.072;2023-07-13T06:18:17;97046.81;;;33.86;42.51
35878;BME280;21982;49.804;24.072;2023-07-13T06:20:43;96988.38;;;34.14;39.91
35878;BME280;21982;49.804;24.072;2023-07-13T06:23:08;97050.50;;;34.99;38.70
35878;BME280;21982;49.804;24.072;2023-07-13T06:25:34;97046.00;;;35.38;37.69
35878;BME280;21982;49.804;24.072;2023-07-13T06:27:59;97037.13;;;35.28;36.81
35878;BME280;21982;49.804;24.072;2023-07-13T06:30:25;97019.94;;;35.32;36.83
35878;BME280;21982;49.804;24.072;2023-07-13T06:32:51;97000.28;;;35.33;36.89
35878;BME280;21982;49.804;24.072;2023-07-13T06:35:17;97050.28;;;35.51;36.79
35878;BME280;21982;49.804;24.072;2023-07-13T06:37:43;97047.06;;;35.80;35.79
35878;BME280;21982;49.804;24.072;2023-07-13T06:40:08;97049.88;;;36.00;35.83
35878;BME280;21982;49.804;24.072;2023-07-13T06:42:34;97011.09;;;35.57;35.52
35878;BME280;21982;49.804;24.072;2023-07-13T06:45:02;97045.06;;;35.30;35.88
35878;BME280;21982;49.804;24.072;2023-07-13T06:47:28;97050.69;;;35.21;36.42
35878;BME280;21982;49.804;24.072;2023-07-13T06:50:00;97044.59;;;35.44;35.92
35878;BME280;21982;49.804;24.072;2023-07-13T06:52:26;97038.69;;;35.92;35.39
35878;BME280;21982;49.804;24.072;2023-07-13T06:54:51;96988.69;;;36.48;34.24
35878;BME280;21982;49.804;24.072;2023-07-13T06:57:16;97028.09;;;37.30;33.62
35878;BME280;21982;49.804;24.072;2023-07-13T06:59:42;97057.03;;;37.62;33.18
35878;BME280;21982;49.804;24.072;2023-07-13T07:02:10;97032.22;;;37.66;32.24
35878;BME280;21982;49.804;24.072;2023-07-13T07:04:36;97044.22;;;38.30;31.94
35878;BME280;21982;49.804;24.072;2023-07-13T07:07:01;97026.34;;;38.53;31.31
35878;BME280;21982;49.804;24.072;2023-07-13T07:09:26;97056.78;;;38.53;31.50
35878;BME280;21982;49.804;24.072;2023-07-13T07:11:52;97032.22;;;38.48;31.29
35878;BME280;21982;49.804;24.072;2023-07-13T07:14:17;97051.41;;;38.64;31.31
35878;BME280;21982;49.804;24.072;2023-07-13T07:16:43;97040.66;;;38.59;31.09
35878;BME280;21982;49.804;24.072;2023-07-13T07:19:09;97060.97;;;38.70;31.29
35878;BME280;21982;49.804;24.072;2023-07-13T07:21:34;97054.81;;;38.54;30.92
35878;BME280;21982;49.804;24.072;2023-07-13T07:23:59;97040.66;;;38.29;31.36
35878;BME280;21982;49.804;24.072;2023-07-13T07:26:25;97055.78;;;38.35;31.41
35878;BME280;21982;49.804;24.072;2023-07-13T07:28:54;97037.53;;;38.31;31.07
35878;BME280;21982;49.804;24.072;2023-07-13T07:31:19;96973.59;;;37.79;30.90
35878;BME280;21982;49.804;24.072;2023-07-13T07:33:45;97048.75;;;38.41;31.06
35878;BME280;21982;49.804;24.072;2023-07-13T07:36:11;97049.69;;;38.56;31.02
35878;BME280;21982;49.804;24.072;2023-07-13T07:38:37;97047.19;;;38.44;30.88
35878;BME280;21982;49.804;24.072;2023-07-13T07:41:03;97032.19;;;38.15;31.34
35878;BME280;21982;49.804;24.072;2023-07-13T07:43:30;97055.91;;;38.16;31.34
35878;BME280;21982;49.804;24.072;2023-07-13T07:45:56;97051.63;;;38.22;31.47
35878;BME280;21982;49.804;24.072;2023-07-13T07:48:22;97043.16;;;38.38;31.54
35878;BME280;21982;49.804;24.072;2023-07-13T07:50:47;97043.28;;;38.82;30.92
35878;BME280;21982;49.804;24.072;2023-07-13T07:53:12;97050.31;;;39.06;30.21
35878;BME280;21982;49.804;24.072;2023-07-13T07:55:38;97042.09;;;38.49;30.77
35878;BME280;21982;49.804;24.072;2023-07-13T07:58:05;97062.19;;;39.06;30.21
35878;BME280;21982;49.804;24.072;2023-07-13T08:00:30;97055.56;;;39.59;29.83
35878;BME280;21982;49.804;24.072;2023-07-13T08:02:57;97067.00;;;40.05;29.32
35878;BME280;21982;49.804;24.072;2023-07-13T08:05:23;97047.03;;;39.81;28.93
35878;BME280;21982;49.804;24.072;2023-07-13T08:07:53;97034.25;;;39.66;29.56
35878;BME280;21982;49.804;24.072;2023-07-13T08:10:21;97062.19;;;39.06;30.11
35878;BME280;21982;49.804;24.072;2023-07-13T08:12:47;96973.38;;;37.16;31.34
35878;BME280;21982;49.804;24.072;2023-07-13T08:15:15;97031.75;;;36.34;32.54
35878;BME280;21982;49.804;24.072;2023-07-13T08:17:41;97026.16;;;35.01;34.73
35878;BME280;21982;49.804;24.072;2023-07-13T08:20:07;97032.47;;;34.57;34.97
35878;BME280;21982;49.804;24.072;2023-07-13T08:22:34;96992.75;;;34.03;35.67
35878;BME280;21982;49.804;24.072;2023-07-13T08:25:00;96994.28;;;34.28;35.78
35878;BME280;21982;49.804;24.072;2023-07-13T08:27:27;97008.69;;;34.65;35.58
35878;BME280;21982;49.804;24.072;2023-07-13T08:29:53;97005.25;;;34.40;35.74
35878;BME280;21982;49.804;24.072;2023-07-13T08:32:20;97015.69;;;34.35;35.50
35878;BME280;21982;49.804;24.072;2023-07-13T08:34:47;97008.50;;;34.58;35.30
35878;BME280;21982;49.804;24.072;2023-07-13T08:37:13;97005.13;;;35.08;34.92
35878;BME280;21982;49.804;24.072;2023-07-13T08:39:38;96998.56;;;35.28;34.46
35878;BME280;21982;49.804;24.072;2023-07-13T08:47:14;96979.97;;;37.31;32.72
35878;BME280;21982;49.804;24.072;2023-07-13T08:49:41;96983.16;;;37.33;32.58
35878;BME280;21982;49.804;24.072;2023-07-13T08:52:21;96912.41;;;37.51;32.46
35878;BME280;21982;49.804;24.072;2023-07-13T08:54:55;96958.06;;;37.41;32.69
35878;BME280;21982;49.804;24.072;2023-07-13T08:57:31;96970.13;;;36.26;33.50
35878;BME280;21982;49.804;24.072;2023-07-13T08:59:58;96989.25;;;35.49;34.60
35878;BME280;21982;49.804;24.072;2023-07-13T09:02:38;96969.72;;;34.91;34.88
35878;BME280;21982;49.804;24.072;2023-07-13T09:05:29;96993.41;;;34.52;35.72
35878;BME280;21982;49.804;24.072;2023-07-13T09:13:46;96983.50;;;32.64;38.75
35878;BME280;21982;49.804;24.072;2023-07-13T09:16:13;96990.13;;;32.51;39.17
35878;BME280;21982;49.804;24.072;2023-07-13T09:18:42;96990.66;;;32.45;39.28
35878;BME280;21982;49.804;24.072;2023-07-13T09:21:11;96989.88;;;32.23;39.55
35878;BME280;21982;49.804;24.072;2023-07-13T09:23:38;96992.53;;;32.11;40.43
35878;BME280;21982;49.804;24.072;2023-07-13T09:28:39;96994.72;;;31.17;40.92
35878;BME280;21982;49.804;24.072;2023-07-13T09:31:07;96993.06;;;30.78;41.71
35878;BME280;21982;49.804;24.072;2023-07-13T09:33:35;96995.84;;;30.44;42.86
35878;BME280;21982;49.804;24.072;2023-07-13T09:36:01;97003.09;;;30.14;43.44
35878;BME280;21982;49.804;24.072;2023-07-13T09:38:28;96982.34;;;29.78;43.82
35878;BME280;21982;49.804;24.072;2023-07-13T09:41:15;96958.63;;;29.30;44.34
35878;BME280;21982;49.804;24.072;2023-07-13T09:44:06;96991.47;;;29.25;44.34
35878;BME280;21982;49.804;24.072;2023-07-13T09:46:34;96976.81;;;29.04;45.57
35878;BME280;21982;49.804;24.072;2023-07-13T09:49:02;96988.22;;;29.06;46.13
35878;BME280;21982;49.804;24.072;2023-07-13T09:51:27;96985.97;;;29.08;45.94
35878;BME280;21982;49.804;24.072;2023-07-13T09:53:53;96981.16;;;29.05;45.92
35878;BME280;21982;49.804;24.072;2023-07-13T09:56:23;96971.19;;;29.00;46.24
35878;BME280;21982;49.804;24.072;2023-07-13T09:58:49;96978.75;;;29.12;46.52
35878;BME280;21982;49.804;24.072;2023-07-13T10:01:15;96981.16;;;29.14;46.69
35878;BME280;21982;49.804;24.072;2023-07-13T10:03:52;96985.50;;;29.06;46.39
35878;BME280;21982;49.804;24.072;2023-07-13T10:06:21;96956.16;;;28.81;46.97
35878;BME280;21982;49.804;24.072;2023-07-13T10:08:49;96960.63;;;28.77;47.56
35878;BME280;21982;49.804;24.072;2023-07-13T10:13:44;96953.22;;;28.68;47.34
35878;BME280;21982;49.804;24.072;2023-07-13T10:16:10;96982.19;;;28.87;48.05
35878;BME280;21982;49.804;24.072;2023-07-13T10:21:18;96996.13;;;28.85;47.89
35878;BME280;21982;49.804;24.072;2023-07-13T10:23:54;96999.53;;;28.68;48.16
35878;BME280;21982;49.804;24.072;2023-07-13T10:26:29;96980.50;;;28.24;48.97
35878;BME280;21982;49.804;24.072;2023-07-13T10:29:02;97004.50;;;28.22;49.89
35878;BME280;21982;49.804;24.072;2023-07-13T10:31:30;96996.69;;;28.07;51.29
35878;BME280;21982;49.804;24.072;2023-07-13T10:34:02;96994.19;;;27.96;51.30
35878;BME280;21982;49.804;24.072;2023-07-13T10:38:57;96909.91;;;27.19;52.28
35878;BME280;21982;49.804;24.072;2023-07-13T10:41:25;96989.03;;;27.59;52.06
35878;BME280;21982;49.804;24.072;2023-07-13T10:43:55;96828.53;;;26.46;52.68
35878;BME280;21982;49.804;24.072;2023-07-13T10:46:25;96982.28;;;27.43;52.77
35878;BME280;21982;49.804;24.072;2023-07-13T10:49:05;96987.72;;;27.43;52.41
35878;BME280;21982;49.804;24.072;2023-07-13T10:51:33;96966.59;;;27.26;52.69
35878;BME280;21982;49.804;24.072;2023-07-13T10:54:18;96928.13;;;26.91;52.62
35878;BME280;21982;49.804;24.072;2023-07-13T10:56:44;96966.19;;;27.05;53.19
35878;BME280;21982;49.804;24.072;2023-07-13T10:59:27;96939.81;;;26.92;53.04
35878;BME280;21982;49.804;24.072;2023-07-13T11:01:56;96965.59;;;27.08;53.82
35878;BME280;21982;49.804;24.072;2023-07-13T11:04:25;96937.03;;;26.97;53.38
35878;BME280;21982;49.804;24.072;2023-07-13T11:06:57;96964.97;;;27.11;53.41
35878;BME280;21982;49.804;24.072;2023-07-13T11:09:36;96940.25;;;26.99;53.54
35878;BME280;21982;49.804;24.072;2023-07-13T11:12:09;96964.19;;;26.97;54.09
35878;BME280;21982;49.804;24.072;2023-07-13T11:14:42;96956.28;;;26.82;54.25
35878;BME280;21982;49.804;24.072;2023-07-13T11:22:47;96946.41;;;26.58;54.04
35878;BME280;21982;49.804;24.072;2023-07-13T11:25:34;96940.06;;;26.49;53.81
35878;BME280;21982;49.804;24.072;2023-07-13T11:33:22;96926.47;;;26.49;53.96
35878;BME280;21982;49.804;24.072;2023-07-13T11:38:30;96925.78;;;26.25;54.39
35878;BME280;21982;49.804;24.072;2023-07-13T11:41:00;96921.63;;;26.14;54.51
35878;BME280;21982;49.804;24.072;2023-07-13T11:43:28;96928.72;;;25.96;55.67
35878;BME280;21982;49.804;24.072;2023-07-13T11:45:54;96923.44;;;25.86;55.46
35878;BME280;21982;49.804;24.072;2023-07-13T11:48:22;96914.34;;;25.77;55.84
35878;BME280;21982;49.804;24.072;2023-07-13T11:50:56;96888.03;;;25.77;55.33
35878;BME280;21982;49.804;24.072;2023-07-13T11:53:25;96889.88;;;25.82;54.82
35878;BME280;21982;49.804;24.072;2023-07-13T11:55:51;96916.50;;;26.12;54.60
35878;BME280;21982;49.804;24.072;2023-07-13T11:58:21;96900.72;;;26.33;54.49
35878;BME280;21982;49.804;24.072;2023-07-13T12:00:49;96898.59;;;26.44;53.92
35878;BME280;21982;49.804;24.072;2023-07-13T12:03:20;96857.28;;;26.47;52.41
35878;BME280;21982;49.804;24.072;2023-07-13T12:06:00;96893.81;;;26.82;51.82
35878;BME280;21982;49.804;24.072;2023-07-13T12:08:26;96887.06;;;27.07;51.83
35878;BME280;21982;49.804;24.072;2023-07-13T12:11:09;96886.00;;;27.44;51.36
35878;BME280;21982;49.804;24.072;2023-07-13T12:13:39;96880.56;;;27.44;50.37
35878;BME280;21982;49.804;24.072;2023-07-13T12:16:32;96843.75;;;27.24;50.71
35878;BME280;21982;49.804;24.072;2023-07-13T12:18:59;96878.78;;;27.25;50.96
35878;BME280;21982;49.804;24.072;2023-07-13T12:21:33;96857.09;;;26.98;51.16
35878;BME280;21982;49.804;24.072;2023-07-13T12:24:00;96884.16;;;26.89;51.89
35878;BME280;21982;49.804;24.072;2023-07-13T12:26:28;96878.81;;;26.70;52.36
35878;BME280;21982;49.804;24.072;2023-07-13T12:28:55;96876.59;;;26.59;52.13
35878;BME280;21982;49.804;24.072;2023-07-13T12:31:40;96862.63;;;26.52;51.74
35878;BME280;21982;49.804;24.072;2023-07-13T12:34:15;96823.25;;;26.22;51.81
35878;BME280;21982;49.804;24.072;2023-07-13T12:36:52;96791.34;;;26.00;51.95
35878;BME280;21982;49.804;24.072;2023-07-13T12:39:37;96836.84;;;26.35;51.82
35878;BME280;21982;49.804;24.072;2023-07-13T12:42:23;96831.94;;;26.37;52.24
35878;BME280;21982;49.804;24.072;2023-07-13T12:45:05;96800.94;;;26.25;52.12
35878;BME280;21982;49.804;24.072;2023-07-13T12:47:41;96806.59;;;26.42;52.05
35878;BME280;21982;49.804;24.072;2023-07-13T12:50:17;96818.47;;;26.60;51.64
35878;BME280;21982;49.804;24.072;2023-07-13T12:52:43;96787.50;;;26.33;52.02
35878;BME280;21982;49.804;24.072;2023-07-13T12:55:17;96821.09;;;26.65;52.45
35878;BME280;21982;49.804;24.072;2023-07-13T12:57:46;96813.13;;;26.41;52.15
35878;BME280;21982;49.804;24.072;2023-07-13T13:00:27;96815.56;;;26.56;52.34
35878;BME280;21982;49.804;24.072;2023-07-13T13:02:56;96817.25;;;26.52;52.76
35878;BME280;21982;49.804;24.072;2023-07-13T13:05:25;96801.38;;;26.32;52.65
35878;BME280;21982;49.804;24.072;2023-07-13T13:07:51;96796.72;;;26.19;52.74
35878;BME280;21982;49.804;24.072;2023-07-13T13:10:16;96805.22;;;26.31;53.26
35878;BME280;21982;49.804;24.072;2023-07-13T13:12:42;96831.94;;;26.51;52.84
35878;BME280;21982;49.804;24.072;2023-07-13T13:15:10;96843.63;;;26.65;53.00
35878;BME280;21982;49.804;24.072;2023-07-13T13:17:38;96836.28;;;26.66;52.44
35878;BME280;21982;49.804;24.072;2023-07-13T13:20:20;96821.59;;;26.53;52.47
35878;BME280;21982;49.804;24.072;2023-07-13T13:22:47;96812.13;;;26.37;52.93
35878;BME280;21982;49.804;24.072;2023-07-13T13:25:13;96837.38;;;26.51;52.84
35878;BME280;21982;49.804;24.072;2023-07-13T13:27:41;96840.69;;;26.48;53.50
35878;BME280;21982;49.804;24.072;2023-07-13T13:30:11;96830.75;;;26.57;53.44